Troutdale, OR (97060)

11:10 AM PDT on August 31, 2015 (GMT -0700)
Stewart Ridge | | Change Station
CLOSE
Current Station
Personal Weather Station
Location: Troutdale, OR
Elevation: 280 ft
Nearby Weather Stations

Elev 280 ft 45.53 °N, 122.39 °W | Updated 1 minute ago

Overcast
Overcast
71.4 °F
Feels Like 77 °F
N
6.5
Wind Variable Wind from SW
Gusts 7.6 mph

Today
High -- | Low -- °F
--% Chance of Precip.
Yesterday
High -- | Low -- °F
Precip. -- in
6:29 AM 7:49 PM
Waning Gibbous, 94% visible
Pressure 30.05 in
Visibility 10.0 miles
Clouds Mostly Cloudy 3700 ft
Mostly Cloudy 5000 ft
Overcast 5500 ft
Heat Index 77 °F
Dew Point 51 °F
Humidity 49%
Rainfall 0.00 in
Snow Depth Not available.
UV 2 out of 12
Pollen 3.00 out of 12
Air Quality Not available.
Flu Activity Not available.
METAR KTTD 311753Z 00000KT 10SM BKN037 BKN050 OVC055 20/12 A3005 RMK AO2 SLP176 T02000117 10200 20139 58006
Pressure 30.05 in
Visibility 10.0 miles
Clouds Mostly Cloudy 3700 ft
Mostly Cloudy 5000 ft
Overcast 5500 ft
Heat Index 77 °F
Dew Point 51 °F
Humidity 49%
Rainfall 0.00 in
Snow Depth Not available.
UV 2 out of 12
Pollen 3.00 out of 12
Air Quality Not available.
Flu Activity Not available.
METAR KTTD 311753Z 00000KT 10SM BKN037 BKN050 OVC055 20/12 A3005 RMK AO2 SLP176 T02000117 10200 20139 58006

10-Day Weather Forecast

×

Almanac

Astronomy

Aug. 31, 2015 Rise Set
Actual Time
Civil Twilight
Nautical Twilight
Astronomical Twilight
Moon
Length of Visible Light
Length of Day
Tomorrow will be .
, % of the Moon is Illuminated

Today's Extremes

State Highs State Lows

Community

WunderPhotos

Upload Photos

1,851,327 photos uploaded!

WunderBlogs® & News

Nearby

Air Quality

  Air Quality AQ Index Pollutant
Not available.

Snow Depth

Station Depth Elevation

Earthquake Activity

City Distance Mag. Time & Date
Minimum magnitude displayed is 2.5.

Coastal Water Temperatures

Place Temperature

Stations

Nearby Weather Stations

Station Location Temp. Windchill Dew Point Humidity Wind Precip. Elev Updated Type